sensor_id;sensor_type;location;lat;lon;timestamp;P1;durP1;ratioP1;P2;durP2;ratioP2
71172;SDS011;58875;51.996;4.504;2023-05-10T00:00:32;27.38;;;26.74;;
71172;SDS011;58875;51.996;4.504;2023-05-10T00:02:58;27.40;;;26.82;;
71172;SDS011;58875;51.996;4.504;2023-05-10T00:05:24;27.60;;;26.95;;
71172;SDS011;58875;51.996;4.504;2023-05-10T00:07:49;27.93;;;27.40;;
71172;SDS011;58875;51.996;4.504;2023-05-10T00:10:15;29.46;;;28.53;;
71172;SDS011;58875;51.996;4.504;2023-05-10T00:12:41;28.89;;;28.46;;
71172;SDS011;58875;51.996;4.504;2023-05-10T00:15:07;29.57;;;29.16;;
71172;SDS011;58875;51.996;4.504;2023-05-10T00:17:33;28.76;;;28.54;;
71172;SDS011;58875;51.996;4.504;2023-05-10T00:19:58;29.84;;;29.48;;
71172;SDS011;58875;51.996;4.504;2023-05-10T00:22:24;30.73;;;30.41;;
71172;SDS011;58875;51.996;4.504;2023-05-10T00:24:50;30.85;;;30.55;;
71172;SDS011;58875;51.996;4.504;2023-05-10T00:27:15;31.24;;;30.59;;
71172;SDS011;58875;51.996;4.504;2023-05-10T00:29:41;30.07;;;29.47;;
71172;SDS011;58875;51.996;4.504;2023-05-10T00:32:06;30.48;;;29.86;;
71172;SDS011;58875;51.996;4.504;2023-05-10T00:34:32;31.41;;;30.65;;
71172;SDS011;58875;51.996;4.504;2023-05-10T00:36:58;30.61;;;30.11;;
71172;SDS011;58875;51.996;4.504;2023-05-10T00:39:23;28.98;;;28.56;;
71172;SDS011;58875;51.996;4.504;2023-05-10T00:41:51;28.02;;;27.60;;
71172;SDS011;58875;51.996;4.504;2023-05-10T00:44:17;28.86;;;28.07;;
71172;SDS011;58875;51.996;4.504;2023-05-10T00:46:44;26.50;;;25.77;;
71172;SDS011;58875;51.996;4.504;2023-05-10T00:49:10;26.97;;;26.44;;
71172;SDS011;58875;51.996;4.504;2023-05-10T00:51:36;29.20;;;28.32;;
71172;SDS011;58875;51.996;4.504;2023-05-10T00:54:02;29.27;;;28.12;;
71172;SDS011;58875;51.996;4.504;2023-05-10T00:56:30;29.71;;;28.72;;
71172;SDS011;58875;51.996;4.504;2023-05-10T00:58:56;31.18;;;29.73;;
71172;SDS011;58875;51.996;4.504;2023-05-10T01:01:24;31.84;;;30.14;;
71172;SDS011;58875;51.996;4.504;2023-05-10T01:03:51;30.70;;;29.52;;
71172;SDS011;58875;51.996;4.504;2023-05-10T01:06:17;31.65;;;29.89;;
71172;SDS011;58875;51.996;4.504;2023-05-10T01:08:43;31.31;;;29.38;;
71172;SDS011;58875;51.996;4.504;2023-05-10T01:11:09;31.97;;;29.66;;
71172;SDS011;58875;51.996;4.504;2023-05-10T01:13:36;31.37;;;29.36;;
71172;SDS011;58875;51.996;4.504;2023-05-10T01:16:04;32.04;;;29.71;;
71172;SDS011;58875;51.996;4.504;2023-05-10T01:18:33;34.05;;;31.38;;
71172;SDS011;58875;51.996;4.504;2023-05-10T01:26:39;36.57;;;33.41;;
71172;SDS011;58875;51.996;4.504;2023-05-10T01:34:59;40.28;;;35.96;;
71172;SDS011;58875;51.996;4.504;2023-05-10T01:37:55;39.06;;;35.32;;
71172;SDS011;58875;51.996;4.504;2023-05-10T01:43:17;39.55;;;35.65;;
71172;SDS011;58875;51.996;4.504;2023-05-10T01:45:55;38.45;;;34.58;;
71172;SDS011;58875;51.996;4.504;2023-05-10T01:48:36;35.92;;;33.16;;
71172;SDS011;58875;51.996;4.504;2023-05-10T01:51:12;37.01;;;34.27;;
71172;SDS011;58875;51.996;4.504;2023-05-10T01:53:42;39.71;;;35.40;;
71172;SDS011;58875;51.996;4.504;2023-05-10T01:56:11;38.93;;;35.26;;
71172;SDS011;58875;51.996;4.504;2023-05-10T01:58:39;38.41;;;35.17;;
71172;SDS011;58875;51.996;4.504;2023-05-10T02:01:10;35.50;;;32.74;;
71172;SDS011;58875;51.996;4.504;2023-05-10T02:03:38;33.94;;;31.79;;
71172;SDS011;58875;51.996;4.504;2023-05-10T02:06:07;33.63;;;31.39;;
71172;SDS011;58875;51.996;4.504;2023-05-10T02:08:38;32.04;;;30.20;;
71172;SDS011;58875;51.996;4.504;2023-05-10T02:11:06;30.57;;;28.52;;
71172;SDS011;58875;51.996;4.504;2023-05-10T02:13:36;29.73;;;27.80;;
71172;SDS011;58875;51.996;4.504;2023-05-10T02:16:04;28.23;;;27.06;;
71172;SDS011;58875;51.996;4.504;2023-05-10T02:18:31;27.74;;;26.77;;
71172;SDS011;58875;51.996;4.504;2023-05-10T02:21:00;27.55;;;26.46;;
71172;SDS011;58875;51.996;4.504;2023-05-10T02:23:28;26.89;;;25.99;;
71172;SDS011;58875;51.996;4.504;2023-05-10T02:25:55;26.65;;;25.95;;
71172;SDS011;58875;51.996;4.504;2023-05-10T02:28:25;25.87;;;25.16;;
71172;SDS011;58875;51.996;4.504;2023-05-10T02:30:53;25.91;;;25.20;;
71172;SDS011;58875;51.996;4.504;2023-05-10T02:33:21;26.97;;;26.41;;
71172;SDS011;58875;51.996;4.504;2023-05-10T02:35:47;26.78;;;26.08;;
71172;SDS011;58875;51.996;4.504;2023-05-10T02:38:16;29.16;;;28.04;;
71172;SDS011;58875;51.996;4.504;2023-05-10T02:40:45;29.97;;;28.71;;
71172;SDS011;58875;51.996;4.504;2023-05-10T02:43:13;31.04;;;29.95;;
71172;SDS011;58875;51.996;4.504;2023-05-10T02:45:42;30.97;;;30.04;;
71172;SDS011;58875;51.996;4.504;2023-05-10T02:48:12;33.00;;;31.70;;
71172;SDS011;58875;51.996;4.504;2023-05-10T02:50:38;33.89;;;32.41;;
71172;SDS011;58875;51.996;4.504;2023-05-10T02:53:11;34.87;;;33.04;;
71172;SDS011;58875;51.996;4.504;2023-05-10T02:55:44;34.72;;;32.90;;
71172;SDS011;58875;51.996;4.504;2023-05-10T02:58:15;33.84;;;32.30;;
71172;SDS011;58875;51.996;4.504;2023-05-10T03:00:43;35.42;;;33.13;;
71172;SDS011;58875;51.996;4.504;2023-05-10T03:03:09;35.29;;;33.32;;
71172;SDS011;58875;51.996;4.504;2023-05-10T03:05:34;34.99;;;33.37;;
71172;SDS011;58875;51.996;4.504;2023-05-10T03:08:00;35.37;;;33.55;;
71172;SDS011;58875;51.996;4.504;2023-05-10T03:10:30;34.13;;;32.67;;
71172;SDS011;58875;51.996;4.504;2023-05-10T03:13:06;31.19;;;30.08;;
71172;SDS011;58875;51.996;4.504;2023-05-10T03:15:58;31.21;;;30.05;;
71172;SDS011;58875;51.996;4.504;2023-05-10T03:18:47;29.77;;;29.15;;
71172;SDS011;58875;51.996;4.504;2023-05-10T03:21:26;32.83;;;31.57;;
71172;SDS011;58875;51.996;4.504;2023-05-10T03:24:07;31.36;;;30.84;;
71172;SDS011;58875;51.996;4.504;2023-05-10T03:26:37;30.77;;;30.19;;
71172;SDS011;58875;51.996;4.504;2023-05-10T03:29:08;27.36;;;27.05;;
71172;SDS011;58875;51.996;4.504;2023-05-10T03:31:35;27.14;;;26.64;;
71172;SDS011;58875;51.996;4.504;2023-05-10T03:34:01;27.87;;;27.31;;
71172;SDS011;58875;51.996;4.504;2023-05-10T03:36:26;27.53;;;26.90;;
71172;SDS011;58875;51.996;4.504;2023-05-10T03:38:52;27.65;;;27.01;;
71172;SDS011;58875;51.996;4.504;2023-05-10T03:41:21;27.71;;;26.94;;
71172;SDS011;58875;51.996;4.504;2023-05-10T03:43:46;26.97;;;26.48;;
71172;SDS011;58875;51.996;4.504;2023-05-10T03:46:12;29.23;;;28.84;;
71172;SDS011;58875;51.996;4.504;2023-05-10T03:48:38;31.29;;;30.65;;
71172;SDS011;58875;51.996;4.504;2023-05-10T03:51:03;32.23;;;31.57;;
71172;SDS011;58875;51.996;4.504;2023-05-10T03:53:29;32.37;;;31.69;;
71172;SDS011;58875;51.996;4.504;2023-05-10T03:55:54;31.22;;;30.29;;
71172;SDS011;58875;51.996;4.504;2023-05-10T03:58:20;33.09;;;32.12;;
71172;SDS011;58875;51.996;4.504;2023-05-10T04:00:45;31.91;;;31.24;;
71172;SDS011;58875;51.996;4.504;2023-05-10T04:03:11;33.30;;;32.27;;
71172;SDS011;58875;51.996;4.504;2023-05-10T04:05:38;31.57;;;30.57;;
71172;SDS011;58875;51.996;4.504;2023-05-10T04:08:04;31.20;;;30.50;;
71172;SDS011;58875;51.996;4.504;2023-05-10T04:10:30;31.37;;;30.67;;
71172;SDS011;58875;51.996;4.504;2023-05-10T04:12:57;30.26;;;29.45;;
71172;SDS011;58875;51.996;4.504;2023-05-10T04:15:22;29.24;;;28.64;;
71172;SDS011;58875;51.996;4.504;2023-05-10T04:17:48;28.69;;;27.92;;
71172;SDS011;58875;51.996;4.504;2023-05-10T04:20:14;29.43;;;28.38;;
71172;SDS011;58875;51.996;4.504;2023-05-10T04:22:40;29.69;;;28.66;;
71172;SDS011;58875;51.996;4.504;2023-05-10T04:25:06;29.41;;;28.40;;
71172;SDS011;58875;51.996;4.504;2023-05-10T04:27:32;27.92;;;26.93;;
71172;SDS011;58875;51.996;4.504;2023-05-10T04:29:58;27.94;;;26.68;;
71172;SDS011;58875;51.996;4.504;2023-05-10T04:32:24;27.54;;;26.76;;
71172;SDS011;58875;51.996;4.504;2023-05-10T04:34:49;27.46;;;26.55;;
71172;SDS011;58875;51.996;4.504;2023-05-10T04:37:16;28.81;;;27.45;;
71172;SDS011;58875;51.996;4.504;2023-05-10T04:39:42;30.29;;;27.81;;
71172;SDS011;58875;51.996;4.504;2023-05-10T04:42:08;31.00;;;28.84;;
71172;SDS011;58875;51.996;4.504;2023-05-10T04:44:34;34.13;;;30.33;;
71172;SDS011;58875;51.996;4.504;2023-05-10T04:47:00;31.45;;;27.27;;
71172;SDS011;58875;51.996;4.504;2023-05-10T04:49:27;30.59;;;26.39;;
71172;SDS011;58875;51.996;4.504;2023-05-10T04:51:53;29.10;;;25.54;;
71172;SDS011;58875;51.996;4.504;2023-05-10T04:54:20;28.37;;;24.63;;
71172;SDS011;58875;51.996;4.504;2023-05-10T04:56:45;23.73;;;21.32;;
71172;SDS011;58875;51.996;4.504;2023-05-10T04:59:11;18.84;;;17.55;;
71172;SDS011;58875;51.996;4.504;2023-05-10T05:01:36;17.05;;;16.03;;
71172;SDS011;58875;51.996;4.504;2023-05-10T05:04:02;14.49;;;13.70;;
71172;SDS011;58875;51.996;4.504;2023-05-10T05:06:28;13.57;;;12.96;;
71172;SDS011;58875;51.996;4.504;2023-05-10T05:08:55;12.89;;;12.25;;
71172;SDS011;58875;51.996;4.504;2023-05-10T05:11:20;11.36;;;10.96;;
71172;SDS011;58875;51.996;4.504;2023-05-10T05:13:46;8.10;;;8.00;;
71172;SDS011;58875;51.996;4.504;2023-05-10T05:16:12;6.87;;;6.78;;
71172;SDS011;58875;51.996;4.504;2023-05-10T05:18:37;6.31;;;6.30;;
71172;SDS011;58875;51.996;4.504;2023-05-10T05:21:03;6.40;;;6.40;;
71172;SDS011;58875;51.996;4.504;2023-05-10T05:23:38;6.44;;;6.44;;
71172;SDS011;58875;51.996;4.504;2023-05-10T05:26:04;5.99;;;5.99;;
71172;SDS011;58875;51.996;4.504;2023-05-10T05:28:29;6.22;;;6.22;;
71172;SDS011;58875;51.996;4.504;2023-05-10T05:30:57;5.64;;;5.61;;
71172;SDS011;58875;51.996;4.504;2023-05-10T05:33:23;5.55;;;5.48;;
71172;SDS011;58875;51.996;4.504;2023-05-10T05:35:49;5.30;;;5.26;;
71172;SDS011;58875;51.996;4.504;2023-05-10T05:38:16;5.36;;;5.35;;
71172;SDS011;58875;51.996;4.504;2023-05-10T05:40:42;5.28;;;5.26;;
71172;SDS011;58875;51.996;4.504;2023-05-10T05:43:10;5.96;;;5.96;;
71172;SDS011;58875;51.996;4.504;2023-05-10T05:45:36;5.97;;;5.96;;
71172;SDS011;58875;51.996;4.504;2023-05-10T05:48:01;6.25;;;6.25;;
71172;SDS011;58875;51.996;4.504;2023-05-10T05:50:27;6.31;;;6.29;;
71172;SDS011;58875;51.996;4.504;2023-05-10T05:52:53;6.94;;;6.90;;
71172;SDS011;58875;51.996;4.504;2023-05-10T05:55:18;7.07;;;6.90;;
71172;SDS011;58875;51.996;4.504;2023-05-10T05:57:44;7.01;;;6.75;;
71172;SDS011;58875;51.996;4.504;2023-05-10T06:00:10;6.45;;;6.43;;
71172;SDS011;58875;51.996;4.504;2023-05-10T06:02:35;6.68;;;6.68;;
71172;SDS011;58875;51.996;4.504;2023-05-10T06:05:01;7.34;;;7.28;;
71172;SDS011;58875;51.996;4.504;2023-05-10T06:07:27;7.46;;;7.46;;
71172;SDS011;58875;51.996;4.504;2023-05-10T06:09:53;7.58;;;7.58;;
71172;SDS011;58875;51.996;4.504;2023-05-10T06:12:18;7.97;;;7.97;;
71172;SDS011;58875;51.996;4.504;2023-05-10T06:14:44;7.83;;;7.71;;
71172;SDS011;58875;51.996;4.504;2023-05-10T06:17:09;8.00;;;7.93;;
71172;SDS011;58875;51.996;4.504;2023-05-10T06:19:35;7.32;;;7.30;;
71172;SDS011;58875;51.996;4.504;2023-05-10T06:22:01;7.51;;;7.38;;
71172;SDS011;58875;51.996;4.504;2023-05-10T06:24:27;7.13;;;7.09;;
71172;SDS011;58875;51.996;4.504;2023-05-10T06:26:54;7.11;;;7.10;;
71172;SDS011;58875;51.996;4.504;2023-05-10T06:29:20;6.53;;;6.48;;
71172;SDS011;58875;51.996;4.504;2023-05-10T06:31:45;7.07;;;6.86;;
71172;SDS011;58875;51.996;4.504;2023-05-10T06:34:11;7.25;;;7.18;;
71172;SDS011;58875;51.996;4.504;2023-05-10T06:36:37;7.10;;;7.08;;
71172;SDS011;58875;51.996;4.504;2023-05-10T06:39:03;7.02;;;6.93;;
71172;SDS011;58875;51.996;4.504;2023-05-10T06:41:28;6.51;;;6.45;;
71172;SDS011;58875;51.996;4.504;2023-05-10T06:43:54;6.58;;;6.52;;
71172;SDS011;58875;51.996;4.504;2023-05-10T06:46:19;6.47;;;6.45;;
71172;SDS011;58875;51.996;4.504;2023-05-10T06:48:45;6.74;;;6.71;;
71172;SDS011;58875;51.996;4.504;2023-05-10T06:51:11;6.50;;;6.50;;
71172;SDS011;58875;51.996;4.504;2023-05-10T06:53:36;6.35;;;6.33;;
71172;SDS011;58875;51.996;4.504;2023-05-10T06:56:02;6.32;;;6.27;;
71172;SDS011;58875;51.996;4.504;2023-05-10T06:58:28;6.32;;;6.21;;
71172;SDS011;58875;51.996;4.504;2023-05-10T07:00:53;6.77;;;6.71;;
71172;SDS011;58875;51.996;4.504;2023-05-10T07:03:19;6.88;;;6.80;;
71172;SDS011;58875;51.996;4.504;2023-05-10T07:05:44;6.74;;;6.72;;
71172;SDS011;58875;51.996;4.504;2023-05-10T07:08:10;6.85;;;6.78;;
71172;SDS011;58875;51.996;4.504;2023-05-10T07:10:38;6.77;;;6.72;;
71172;SDS011;58875;51.996;4.504;2023-05-10T07:13:04;6.63;;;6.55;;
71172;SDS011;58875;51.996;4.504;2023-05-10T07:15:29;6.92;;;6.82;;
71172;SDS011;58875;51.996;4.504;2023-05-10T07:17:55;6.99;;;6.94;;
71172;SDS011;58875;51.996;4.504;2023-05-10T07:20:20;6.93;;;6.86;;
71172;SDS011;58875;51.996;4.504;2023-05-10T07:22:46;6.74;;;6.60;;
71172;SDS011;58875;51.996;4.504;2023-05-10T07:25:11;7.34;;;7.18;;
71172;SDS011;58875;51.996;4.504;2023-05-10T07:27:37;7.56;;;7.46;;
71172;SDS011;58875;51.996;4.504;2023-05-10T07:30:02;8.22;;;8.11;;
71172;SDS011;58875;51.996;4.504;2023-05-10T07:32:28;8.48;;;8.37;;
71172;SDS011;58875;51.996;4.504;2023-05-10T07:34:53;8.38;;;8.31;;
71172;SDS011;58875;51.996;4.504;2023-05-10T07:37:19;8.79;;;8.69;;
71172;SDS011;58875;51.996;4.504;2023-05-10T07:39:44;8.57;;;8.53;;
71172;SDS011;58875;51.996;4.504;2023-05-10T07:42:10;8.53;;;8.48;;
71172;SDS011;58875;51.996;4.504;2023-05-10T07:44:35;8.59;;;8.50;;
71172;SDS011;58875;51.996;4.504;2023-05-10T07:47:01;8.24;;;8.16;;
71172;SDS011;58875;51.996;4.504;2023-05-10T07:49:26;8.56;;;8.48;;
71172;SDS011;58875;51.996;4.504;2023-05-10T07:51:52;8.82;;;8.81;;
71172;SDS011;58875;51.996;4.504;2023-05-10T07:54:17;9.12;;;9.02;;
71172;SDS011;58875;51.996;4.504;2023-05-10T07:56:43;9.84;;;9.74;;
71172;SDS011;58875;51.996;4.504;2023-05-10T07:59:15;9.26;;;9.17;;
71172;SDS011;58875;51.996;4.504;2023-05-10T08:01:42;8.42;;;8.38;;
71172;SDS011;58875;51.996;4.504;2023-05-10T08:04:08;8.21;;;8.19;;
71172;SDS011;58875;51.996;4.504;2023-05-10T08:06:34;8.53;;;8.53;;
71172;SDS011;58875;51.996;4.504;2023-05-10T08:09:00;8.24;;;8.24;;
71172;SDS011;58875;51.996;4.504;2023-05-10T08:11:25;8.54;;;8.54;;
71172;SDS011;58875;51.996;4.504;2023-05-10T08:13:52;9.17;;;9.13;;
71172;SDS011;58875;51.996;4.504;2023-05-10T08:16:18;8.64;;;8.64;;
71172;SDS011;58875;51.996;4.504;2023-05-10T08:18:45;8.54;;;8.50;;
71172;SDS011;58875;51.996;4.504;2023-05-10T08:21:12;8.26;;;8.26;;
71172;SDS011;58875;51.996;4.504;2023-05-10T08:23:38;8.38;;;8.34;;
71172;SDS011;58875;51.996;4.504;2023-05-10T08:26:04;8.13;;;8.12;;
71172;SDS011;58875;51.996;4.504;2023-05-10T08:28:30;8.33;;;8.33;;
71172;SDS011;58875;51.996;4.504;2023-05-10T08:30:55;8.01;;;8.00;;
71172;SDS011;58875;51.996;4.504;2023-05-10T08:33:21;7.39;;;7.39;;
71172;SDS011;58875;51.996;4.504;2023-05-10T08:35:46;7.61;;;7.61;;
71172;SDS011;58875;51.996;4.504;2023-05-10T08:38:12;7.43;;;7.43;;
71172;SDS011;58875;51.996;4.504;2023-05-10T08:40:38;7.52;;;7.52;;
71172;SDS011;58875;51.996;4.504;2023-05-10T08:43:10;7.42;;;7.40;;
71172;SDS011;58875;51.996;4.504;2023-05-10T08:45:39;6.80;;;6.79;;
71172;SDS011;58875;51.996;4.504;2023-05-10T08:48:08;7.06;;;7.06;;
71172;SDS011;58875;51.996;4.504;2023-05-10T08:50:36;6.79;;;6.79;;
71172;SDS011;58875;51.996;4.504;2023-05-10T08:53:04;6.52;;;6.51;;
71172;SDS011;58875;51.996;4.504;2023-05-10T08:55:37;7.15;;;7.11;;
71172;SDS011;58875;51.996;4.504;2023-05-10T08:58:04;6.30;;;6.30;;
71172;SDS011;58875;51.996;4.504;2023-05-10T09:00:30;7.23;;;7.22;;
71172;SDS011;58875;51.996;4.504;2023-05-10T09:02:59;7.29;;;7.29;;
71172;SDS011;58875;51.996;4.504;2023-05-10T09:05:26;6.92;;;6.90;;
71172;SDS011;58875;51.996;4.504;2023-05-10T09:07:52;7.07;;;7.07;;
71172;SDS011;58875;51.996;4.504;2023-05-10T09:10:19;6.82;;;6.82;;
71172;SDS011;58875;51.996;4.504;2023-05-10T09:12:45;6.28;;;6.28;;
71172;SDS011;58875;51.996;4.504;2023-05-10T09:15:11;5.99;;;5.99;;
71172;SDS011;58875;51.996;4.504;2023-05-10T09:17:44;5.96;;;5.94;;
71172;SDS011;58875;51.996;4.504;2023-05-10T09:20:11;5.98;;;5.96;;
71172;SDS011;58875;51.996;4.504;2023-05-10T09:22:36;6.51;;;6.51;;
71172;SDS011;58875;51.996;4.504;2023-05-10T09:25:09;6.87;;;6.82;;
71172;SDS011;58875;51.996;4.504;2023-05-10T09:27:37;5.90;;;5.88;;
71172;SDS011;58875;51.996;4.504;2023-05-10T09:30:10;5.57;;;5.57;;
71172;SDS011;58875;51.996;4.504;2023-05-10T09:35:06;6.15;;;6.14;;
71172;SDS011;58875;51.996;4.504;2023-05-10T09:37:36;7.38;;;7.26;;
71172;SDS011;58875;51.996;4.504;2023-05-10T09:40:07;7.65;;;7.55;;
71172;SDS011;58875;51.996;4.504;2023-05-10T09:42:36;7.93;;;7.83;;
71172;SDS011;58875;51.996;4.504;2023-05-10T09:45:02;7.52;;;7.37;;
71172;SDS011;58875;51.996;4.504;2023-05-10T09:47:31;7.47;;;7.42;;
71172;SDS011;58875;51.996;4.504;2023-05-10T09:49:57;7.36;;;7.35;;
71172;SDS011;58875;51.996;4.504;2023-05-10T09:52:28;7.06;;;7.06;;
71172;SDS011;58875;51.996;4.504;2023-05-10T09:55:10;6.78;;;6.76;;
71172;SDS011;58875;51.996;4.504;2023-05-10T09:57:35;6.78;;;6.76;;
71172;SDS011;58875;51.996;4.504;2023-05-10T10:00:01;7.05;;;6.98;;
71172;SDS011;58875;51.996;4.504;2023-05-10T10:02:29;6.97;;;6.83;;
71172;SDS011;58875;51.996;4.504;2023-05-10T10:04:56;7.08;;;7.06;;
71172;SDS011;58875;51.996;4.504;2023-05-10T10:07:24;6.99;;;6.97;;
71172;SDS011;58875;51.996;4.504;2023-05-10T10:09:51;7.50;;;7.44;;
71172;SDS011;58875;51.996;4.504;2023-05-10T10:12:18;7.28;;;7.23;;
71172;SDS011;58875;51.996;4.504;2023-05-10T10:14:46;6.84;;;6.67;;
71172;SDS011;58875;51.996;4.504;2023-05-10T10:17:13;6.48;;;6.43;;
71172;SDS011;58875;51.996;4.504;2023-05-10T10:19:38;5.88;;;5.88;;
71172;SDS011;58875;51.996;4.504;2023-05-10T10:22:04;4.89;;;4.89;;
71172;SDS011;58875;51.996;4.504;2023-05-10T10:24:30;4.83;;;4.83;;
71172;SDS011;58875;51.996;4.504;2023-05-10T10:26:58;6.43;;;6.43;;
71172;SDS011;58875;51.996;4.504;2023-05-10T10:29:57;7.17;;;7.17;;
71172;SDS011;58875;51.996;4.504;2023-05-10T10:35:16;7.20;;;7.20;;
71172;SDS011;58875;51.996;4.504;2023-05-10T10:37:43;7.72;;;7.72;;
71172;SDS011;58875;51.996;4.504;2023-05-10T10:40:22;8.15;;;8.13;;
71172;SDS011;58875;51.996;4.504;2023-05-10T10:42:53;7.88;;;7.84;;
71172;SDS011;58875;51.996;4.504;2023-05-10T10:45:19;7.95;;;7.95;;
71172;SDS011;58875;51.996;4.504;2023-05-10T10:47:46;7.91;;;7.91;;
71172;SDS011;58875;51.996;4.504;2023-05-10T10:50:11;8.38;;;8.38;;
71172;SDS011;58875;51.996;4.504;2023-05-10T10:52:44;7.95;;;7.89;;
71172;SDS011;58875;51.996;4.504;2023-05-10T10:55:14;7.83;;;7.83;;
71172;SDS011;58875;51.996;4.504;2023-05-10T10:57:44;7.71;;;7.71;;
71172;SDS011;58875;51.996;4.504;2023-05-10T11:00:21;7.24;;;7.24;;
71172;SDS011;58875;51.996;4.504;2023-05-10T11:02:52;7.15;;;7.15;;
71172;SDS011;58875;51.996;4.504;2023-05-10T11:05:37;7.05;;;7.05;;
71172;SDS011;58875;51.996;4.504;2023-05-10T11:08:08;7.64;;;7.64;;
71172;SDS011;58875;51.996;4.504;2023-05-10T11:10:35;8.36;;;8.36;;
71172;SDS011;58875;51.996;4.504;2023-05-10T11:13:05;8.26;;;8.26;;
71172;SDS011;58875;51.996;4.504;2023-05-10T11:15:33;7.94;;;7.94;;
71172;SDS011;58875;51.996;4.504;2023-05-10T11:18:19;7.34;;;7.34;;
71172;SDS011;58875;51.996;4.504;2023-05-10T11:20:58;7.46;;;7.46;;
71172;SDS011;58875;51.996;4.504;2023-05-10T11:26:08;8.78;;;8.78;;
71172;SDS011;58875;51.996;4.504;2023-05-10T11:28:44;8.29;;;8.29;;
71172;SDS011;58875;51.996;4.504;2023-05-10T11:31:14;7.83;;;7.83;;
71172;SDS011;58875;51.996;4.504;2023-05-10T11:33:44;7.37;;;7.37;;
71172;SDS011;58875;51.996;4.504;2023-05-10T11:36:18;6.14;;;6.14;;
71172;SDS011;58875;51.996;4.504;2023-05-10T11:38:46;6.19;;;6.19;;
71172;SDS011;58875;51.996;4.504;2023-05-10T11:41:12;6.19;;;6.19;;
71172;SDS011;58875;51.996;4.504;2023-05-10T11:43:39;6.36;;;6.35;;
71172;SDS011;58875;51.996;4.504;2023-05-10T11:46:10;6.49;;;6.40;;
71172;SDS011;58875;51.996;4.504;2023-05-10T11:48:41;6.70;;;6.70;;
71172;SDS011;58875;51.996;4.504;2023-05-10T11:51:08;6.41;;;6.41;;
71172;SDS011;58875;51.996;4.504;2023-05-10T11:53:35;6.65;;;6.61;;
71172;SDS011;58875;51.996;4.504;2023-05-10T11:56:10;6.26;;;6.26;;
71172;SDS011;58875;51.996;4.504;2023-05-10T11:58:37;6.60;;;6.60;;
71172;SDS011;58875;51.996;4.504;2023-05-10T12:01:05;6.71;;;6.71;;
71172;SDS011;58875;51.996;4.504;2023-05-10T12:03:32;6.98;;;6.98;;
71172;SDS011;58875;51.996;4.504;2023-05-10T12:05:59;7.14;;;7.14;;
71172;SDS011;58875;51.996;4.504;2023-05-10T12:08:26;6.76;;;6.76;;
71172;SDS011;58875;51.996;4.504;2023-05-10T12:10:54;6.63;;;6.63;;
71172;SDS011;58875;51.996;4.504;2023-05-10T12:13:30;7.07;;;7.07;;
71172;SDS011;58875;51.996;4.504;2023-05-10T12:15:59;6.80;;;6.80;;
71172;SDS011;58875;51.996;4.504;2023-05-10T12:18:25;6.64;;;6.64;;
71172;SDS011;58875;51.996;4.504;2023-05-10T12:20:51;6.81;;;6.81;;
71172;SDS011;58875;51.996;4.504;2023-05-10T12:23:18;7.02;;;6.95;;
71172;SDS011;58875;51.996;4.504;2023-05-10T12:25:45;7.45;;;7.44;;
71172;SDS011;58875;51.996;4.504;2023-05-10T12:28:11;7.18;;;7.13;;
71172;SDS011;58875;51.996;4.504;2023-05-10T12:30:37;7.34;;;7.33;;
71172;SDS011;58875;51.996;4.504;2023-05-10T12:33:10;7.19;;;7.14;;
71172;SDS011;58875;51.996;4.504;2023-05-10T12:35:48;6.95;;;6.95;;
71172;SDS011;58875;51.996;4.504;2023-05-10T12:38:27;7.31;;;7.27;;
71172;SDS011;58875;51.996;4.504;2023-05-10T12:41:04;8.11;;;7.98;;
71172;SDS011;58875;51.996;4.504;2023-05-10T12:43:32;7.40;;;7.36;;
71172;SDS011;58875;51.996;4.504;2023-05-10T12:45:58;6.91;;;6.84;;
71172;SDS011;58875;51.996;4.504;2023-05-10T12:48:29;6.18;;;6.13;;
71172;SDS011;58875;51.996;4.504;2023-05-10T12:50:56;6.46;;;6.45;;
71172;SDS011;58875;51.996;4.504;2023-05-10T12:53:21;6.92;;;6.91;;
71172;SDS011;58875;51.996;4.504;2023-05-10T12:55:48;7.37;;;7.32;;
71172;SDS011;58875;51.996;4.504;2023-05-10T12:58:13;6.89;;;6.87;;
71172;SDS011;58875;51.996;4.504;2023-05-10T13:00:39;7.23;;;7.18;;
71172;SDS011;58875;51.996;4.504;2023-05-10T13:03:04;7.47;;;7.40;;
71172;SDS011;58875;51.996;4.504;2023-05-10T13:05:33;6.95;;;6.90;;
71172;SDS011;58875;51.996;4.504;2023-05-10T13:07:59;7.04;;;7.04;;
71172;SDS011;58875;51.996;4.504;2023-05-10T13:10:25;6.84;;;6.80;;
71172;SDS011;58875;51.996;4.504;2023-05-10T13:12:51;6.64;;;6.61;;
71172;SDS011;58875;51.996;4.504;2023-05-10T13:15:17;5.94;;;5.94;;
71172;SDS011;58875;51.996;4.504;2023-05-10T13:17:42;5.49;;;5.48;;
71172;SDS011;58875;51.996;4.504;2023-05-10T13:20:08;6.38;;;6.38;;
71172;SDS011;58875;51.996;4.504;2023-05-10T13:22:35;6.19;;;6.19;;
71172;SDS011;58875;51.996;4.504;2023-05-10T13:25:03;5.80;;;5.79;;
71172;SDS011;58875;51.996;4.504;2023-05-10T13:27:29;5.53;;;5.52;;
71172;SDS011;58875;51.996;4.504;2023-05-10T13:29:55;6.18;;;6.18;;
71172;SDS011;58875;51.996;4.504;2023-05-10T13:32:20;6.39;;;6.36;;
71172;SDS011;58875;51.996;4.504;2023-05-10T13:34:46;6.16;;;6.10;;
71172;SDS011;58875;51.996;4.504;2023-05-10T13:37:12;5.96;;;5.96;;
71172;SDS011;58875;51.996;4.504;2023-05-10T13:39:37;5.80;;;5.80;;
71172;SDS011;58875;51.996;4.504;2023-05-10T13:42:03;5.79;;;5.79;;
71172;SDS011;58875;51.996;4.504;2023-05-10T13:44:29;5.75;;;5.74;;
71172;SDS011;58875;51.996;4.504;2023-05-10T13:46:55;6.24;;;6.22;;
71172;SDS011;58875;51.996;4.504;2023-05-10T13:49:21;5.86;;;5.84;;
71172;SDS011;58875;51.996;4.504;2023-05-10T13:51:47;6.14;;;6.08;;
71172;SDS011;58875;51.996;4.504;2023-05-10T13:54:13;5.90;;;5.89;;
71172;SDS011;58875;51.996;4.504;2023-05-10T13:56:39;5.98;;;5.93;;
71172;SDS011;58875;51.996;4.504;2023-05-10T13:59:06;5.61;;;5.60;;
71172;SDS011;58875;51.996;4.504;2023-05-10T14:01:32;5.55;;;5.55;;
71172;SDS011;58875;51.996;4.504;2023-05-10T14:03:58;5.35;;;5.35;;
71172;SDS011;58875;51.996;4.504;2023-05-10T14:06:24;5.58;;;5.58;;
71172;SDS011;58875;51.996;4.504;2023-05-10T14:08:50;5.93;;;5.93;;
71172;SDS011;58875;51.996;4.504;2023-05-10T14:11:15;6.07;;;6.06;;
71172;SDS011;58875;51.996;4.504;2023-05-10T14:13:41;5.83;;;5.82;;
71172;SDS011;58875;51.996;4.504;2023-05-10T14:16:07;5.67;;;5.65;;
71172;SDS011;58875;51.996;4.504;2023-05-10T14:18:32;5.95;;;5.90;;
71172;SDS011;58875;51.996;4.504;2023-05-10T14:20:58;5.95;;;5.93;;
71172;SDS011;58875;51.996;4.504;2023-05-10T14:23:23;6.26;;;6.24;;
71172;SDS011;58875;51.996;4.504;2023-05-10T14:25:49;6.26;;;6.26;;
71172;SDS011;58875;51.996;4.504;2023-05-10T14:28:16;6.79;;;6.79;;
71172;SDS011;58875;51.996;4.504;2023-05-10T14:30:42;6.44;;;6.44;;
71172;SDS011;58875;51.996;4.504;2023-05-10T14:33:09;6.48;;;6.45;;
71172;SDS011;58875;51.996;4.504;2023-05-10T14:35:35;7.09;;;6.91;;
71172;SDS011;58875;51.996;4.504;2023-05-10T14:38:01;6.70;;;6.51;;
71172;SDS011;58875;51.996;4.504;2023-05-10T14:40:28;6.18;;;6.17;;
71172;SDS011;58875;51.996;4.504;2023-05-10T14:42:54;5.90;;;5.88;;
71172;SDS011;58875;51.996;4.504;2023-05-10T14:45:20;5.98;;;5.97;;
71172;SDS011;58875;51.996;4.504;2023-05-10T14:47:46;6.17;;;6.08;;
71172;SDS011;58875;51.996;4.504;2023-05-10T14:50:11;6.22;;;6.12;;
71172;SDS011;58875;51.996;4.504;2023-05-10T14:52:37;5.94;;;5.87;;
71172;SDS011;58875;51.996;4.504;2023-05-10T14:55:02;5.46;;;5.46;;
71172;SDS011;58875;51.996;4.504;2023-05-10T14:57:28;5.63;;;5.63;;
71172;SDS011;58875;51.996;4.504;2023-05-10T14:59:55;5.75;;;5.75;;
71172;SDS011;58875;51.996;4.504;2023-05-10T15:02:21;5.75;;;5.75;;